Time;durP1;ratioP1;P1;durP2;ratioP2;P2;SDS_P1;SDS_P2;PMS_P1;PMS_P2;Temp;Humidity;BMP_temperature;BMP_pressure;BME280_temperature;BME280_humidity;BME280_pressure;Samples;Min_cycle;Max_cycle;Signal;HPM_P1;HPM_P2
2023/02/26 00:23:38;;;;;;;;;;;;;;;;;;;;;
2023/02/26 00:31:35;;;;;;;9.15;2.03;;;;;;;-0.57;100.00;101232.25;4944445;29;20067;-95
2023/02/26 00:34:15;;;;;;;12.23;2.25;;;;;;;-0.45;100.00;101262.69;4946355;29;20035;-96
2023/02/26 00:37:20;;;;;;;12.10;2.45;;;;;;;-0.68;100.00;101239.03;4945978;29;20478;-96
2023/02/26 00:40:19;;;;;;;8.20;2.83;;;;;;;-0.41;100.00;101257.63;4941781;29;20036;-96
2023/02/26 00:42:54;;;;;;;15.63;3.33;;;;;;;-0.61;100.00;101219.56;4957599;29;20035;-95
2023/02/26 00:45:22;;;;;;;9.48;2.50;;;;;;;-0.73;100.00;101235.59;4941510;29;20039;-96
2023/02/26 00:48:12;;;;;;;11.95;2.85;;;;;;;-0.72;100.00;101229.72;4942021;29;20055;-96
2023/02/26 00:51:03;;;;;;;;;;;;;;;;;;;;;
2023/02/26 00:53:49;;;;;;;12.75;2.85;;;;;;;-0.72;100.00;101227.16;4944679;28;20306;-96
2023/02/26 00:56:19;;;;;;;10.30;3.75;;;;;;;-0.76;100.00;101220.41;4938115;29;20046;-96
2023/02/26 00:59:00;;;;;;;15.05;3.25;;;;;;;-0.73;100.00;101225.47;4945415;29;20036;-96
2023/02/26 01:01:37;;;;;;;17.95;2.47;;;;;;;-0.80;100.00;101234.75;4943231;29;20118;-96
2023/02/26 01:04:10;;;;;;;10.95;3.15;;;;;;;-0.87;100.00;101213.63;4959304;28;20078;-96
2023/02/26 01:06:44;;;;;;;14.27;3.00;;;;;;;-0.92;100.00;101225.44;4942314;29;20032;-96
2023/02/26 01:09:24;;;;;;;11.38;3.13;;;;;;;-0.93;100.00;101213.59;4945907;29;20070;-96
2023/02/26 01:11:54;;;;;;;10.93;3.25;;;;;;;-0.71;100.00;101251.66;4956507;29;20028;-96
2023/02/26 01:14:26;;;;;;;10.32;3.25;;;;;;;-0.89;100.00;101219.53;4937139;29;20046;-96
2023/02/26 01:17:05;;;;;;;16.17;3.90;;;;;;;-0.70;100.00;101268.59;4938160;29;20064;-96
2023/02/26 01:19:45;;;;;;;16.20;3.50;;;;;;;-0.81;100.00;101272.75;4944107;29;20154;-96
2023/02/26 01:26:04;;;;;;;11.38;4.55;;;;;;;-1.17;100.00;101234.66;4933889;29;20036;-96
2023/02/26 01:28:35;;;;;;;13.93;4.18;;;;;;;-1.30;100.00;101243.88;4946012;29;20389;-96
2023/02/26 01:31:16;;;;;;;15.00;4.05;;;;;;;-1.20;100.00;101238.84;4952830;28;20032;-96
2023/02/26 01:34:00;;;;;;;13.07;3.55;;;;;;;-1.14;100.00;101259.16;4947667;29;20498;-96
2023/02/26 01:36:54;;;;;;;;;;;;;;;;;;;;;
2023/02/26 01:39:56;;;;;;;14.32;3.75;;;;;;;-1.38;100.00;101244.69;4948256;29;20134;-96
2023/02/26 01:42:30;;;;;;;10.57;3.95;;;;;;;-0.88;100.00;101295.56;4939520;29;20043;-96
2023/02/26 01:45:18;;;;;;;21.48;4.50;;;;;;;-1.06;100.00;101249.88;4947864;29;20043;-96
2023/02/26 01:48:04;;;;;;;21.35;4.00;;;;;;;-0.88;100.00;101282.91;4943625;29;20030;-96
2023/02/26 01:50:45;;;;;;;11.50;4.18;;;;;;;-1.06;100.00;101254.97;4944935;29;20071;-96
2023/02/26 01:53:22;;;;;;;15.45;4.13;;;;;;;-0.75;100.00;101268.56;4962479;28;20064;-96
2023/02/26 01:56:22;;;;;;;21.65;4.80;;;;;;;-0.91;100.00;101262.59;4946277;29;20039;-96
2023/02/26 01:58:52;;;;;;;10.77;4.70;;;;;;;-1.10;100.00;101254.13;4945768;29;20031;-96
2023/02/26 02:01:36;;;;;;;14.80;4.33;;;;;;;-1.12;100.00;101257.47;4947681;29;20042;-96
2023/02/26 02:04:29;;;;;;;20.95;4.07;;;;;;;-1.12;100.00;101262.56;4961858;29;20507;-96
2023/02/26 02:07:19;;;;;;;20.55;3.80;;;;;;;-0.95;100.00;101278.66;4943040;29;20095;-96
2023/02/26 02:09:58;;;;;;;18.17;4.38;;;;;;;-0.59;100.00;101307.47;4945387;29;20027;-96
2023/02/26 02:13:01;;;;;;;16.38;4.00;;;;;;;-0.70;100.00;101304.91;4947832;29;20040;-96
2023/02/26 02:16:04;;;;;;;16.55;4.10;;;;;;;-1.21;100.00;101267.56;4948960;29;20036;-96
2023/02/26 02:19:11;;;;;;;15.45;3.95;;;;;;;-0.91;100.00;101294.69;4961859;29;20047;-96
2023/02/26 02:22:05;;;;;;;10.55;3.95;;;;;;;-0.80;100.00;101304.91;4936581;29;20036;-96
2023/02/26 02:24:56;;;;;;;;;;;;;;;;;;;;;
2023/02/26 02:27:48;;;;;;;;;;;;;;;;;;;;;
2023/02/26 02:30:53;;;;;;;22.40;4.95;;;;;;;-1.26;100.00;101249.81;4951657;29;20071;-96
2023/02/26 02:34:11;;;;;;;17.35;4.35;;;;;;;-1.32;100.00;101248.13;4930103;29;20039;-96
2023/02/26 02:37:06;;;;;;;20.17;4.35;;;;;;;-0.72;100.00;101303.22;4941867;29;20046;-96
2023/02/26 02:39:50;;;;;;;17.58;5.15;;;;;;;-1.01;100.00;101278.63;4948849;29;20044;-96
2023/02/26 02:42:32;;;;;;;13.35;4.35;;;;;;;-1.23;100.00;101254.03;4959240;29;20035;-96
2023/02/26 02:45:16;;;;;;;;;;;;;;;-0.96;100.00;101304.81;4967930;28;20036;-96
2023/02/26 02:47:58;;;;;;;13.60;4.18;;;;;;;-0.90;100.00;101298.94;4950413;29;19965;-96
2023/02/26 02:50:56;;;;;;;;;;;;;;;;;;;;;
2023/02/26 02:53:56;;;;;;;23.48;7.70;;;;;;;-1.01;100.00;101262.56;4948901;29;19985;-96
2023/02/26 02:56:52;;;;;;;18.70;4.97;;;;;;;-1.02;100.00;101264.28;4948354;29;20032;-96
2023/02/26 02:59:31;;;;;;;17.05;4.60;;;;;;;-0.66;100.00;101314.22;4946216;29;20040;-96
2023/02/26 03:02:13;;;;;;;11.55;5.28;;;;;;;-0.91;100.00;101289.63;4951371;29;20442;-96
2023/02/26 03:08:27;;;;;;;10.43;4.47;;;;;;;-0.90;100.00;101279.50;4945076;29;20035;-96
2023/02/26 03:11:13;;;;;;;16.88;4.75;;;;;;;-0.39;100.00;101319.34;4946052;29;20059;-96
2023/02/26 03:14:54;;;;;;;26.65;5.93;;;;;;;-0.45;100.00;101272.84;4950566;29;20044;-96
2023/02/26 03:18:08;;;;;;;17.17;5.60;;;;;;;-0.54;100.00;101289.72;4907902;29;20051;-96
2023/02/26 03:20:43;;;;;;;16.67;5.13;;;;;;;-0.43;100.00;101299.06;4923501;29;20454;-96
2023/02/26 04:28:02;;;;;;;;;;;;;;;;;;;;;
2023/02/26 04:30:39;;;;;;;11.52;4.78;;;;;;;-0.93;100.00;101335.22;4973017;28;20143;-96
2023/02/26 04:33:10;;;;;;;21.67;4.70;;;;;;;-1.08;100.00;101337.69;4964181;28;20059;-96
2023/02/26 04:35:50;;;;;;;17.27;4.95;;;;;;;-1.08;100.00;101340.22;4945820;29;20039;-96
2023/02/26 04:38:24;;;;;;;12.95;5.10;;;;;;;-0.54;100.00;101381.84;4944619;29;20027;-96
2023/02/26 04:40:56;;;;;;;17.08;5.00;;;;;;;-0.72;100.00;101338.72;4959470;28;20028;-96
2023/02/26 04:43:41;;;;;;;17.50;5.53;;;;;;;-0.82;100.00;101336.97;4959580;28;20044;-96
2023/02/26 04:46:28;;;;;;;13.50;5.20;;;;;;;-0.78;100.00;101366.53;4956279;29;20036;-96
2023/02/26 04:49:06;;;;;;;15.85;4.78;;;;;;;-1.01;100.00;101352.09;4935665;29;20039;-96
2023/02/26 04:51:43;;;;;;;20.67;4.88;;;;;;;-0.98;100.00;101361.41;4945843;29;20077;-96
2023/02/26 04:54:18;;;;;;;15.73;4.57;;;;;;;-0.74;100.00;101355.59;4944421;29;20509;-96
2023/02/26 04:56:59;;;;;;;11.85;4.78;;;;;;;-0.65;100.00;101360.69;4948683;28;20107;-96
2023/02/26 04:59:27;;;;;;;15.35;4.65;;;;;;;-0.70;100.00;101359.84;4944780;29;20044;-96
2023/02/26 05:02:04;;;;;;;15.32;5.00;;;;;;;-0.36;100.00;101413.22;4945046;29;20059;-96
2023/02/26 05:04:48;;;;;;;19.33;5.78;;;;;;;-0.36;100.00;101365.03;4946344;28;20055;-96
2023/02/26 05:10:31;;;;;;;12.15;5.28;;;;;;;-0.64;100.00;101359.84;4944356;29;20055;-96
2023/02/26 05:13:03;;;;;;;19.42;5.00;;;;;;;-0.65;100.00;101358.16;4925322;29;20138;-96
2023/02/26 05:16:04;;;;;;;14.63;4.72;;;;;;;-0.29;100.00;101412.41;4940168;29;20036;-96
2023/02/26 05:18:57;;;;;;;;;;;;;;;;;;;;;
2023/02/26 05:21:31;;;;;;;16.30;6.30;;;;;;;-0.21;100.00;101390.41;4949201;29;20055;-96
2023/02/26 05:24:04;;;;;;;20.98;5.18;;;;;;;-0.10;100.00;101411.59;4944372;29;20035;-96
2023/02/26 05:26:47;;;;;;;12.13;5.13;;;;;;;-0.44;100.00;101381.06;4948610;29;20032;-96
2023/02/26 05:29:24;;;;;;;20.67;5.05;;;;;;;-0.60;100.00;101384.38;4962014;28;20043;-96
2023/02/26 05:32:03;;;;;;;14.32;3.88;;;;;;;-0.47;100.00;101380.19;4944068;29;20032;-96
2023/02/26 05:34:59;;;;;;;15.07;4.65;;;;;;;-0.60;100.00;101384.38;4945796;29;20059;-96
2023/02/26 05:37:52;;;;;;;20.35;5.38;;;;;;;-0.36;100.00;101385.31;4947821;29;20042;-96
2023/02/26 05:40:50;;;;;;;19.73;4.10;;;;;;;-0.52;100.00;101382.72;4944922;29;20063;-96
2023/02/26 05:43:44;;;;;;;17.30;4.78;;;;;;;-0.27;100.00;101429.31;4946659;29;20043;-96
2023/02/26 05:46:31;;;;;;;15.38;4.75;;;;;;;-0.63;100.00;101383.50;4955482;29;20104;-96
2023/02/26 05:49:48;;;;;;;11.55;4.25;;;;;;;-0.78;100.00;101379.22;4951013;29;20043;-96
2023/02/26 05:56:11;;;;;;;;;;;;;;;;;;;;;
2023/02/26 06:08:47;;;;;;;11.88;4.10;;;;;;;-0.98;100.00;101401.94;5787584;23;20062;-96
2023/02/26 06:11:43;;;;;;;14.38;4.75;;;;;;;-0.86;100.00;101451.00;4968706;28;20027;-96
2023/02/26 06:14:14;;;;;;;13.45;4.97;;;;;;;-1.24;100.00;101394.16;4967535;28;20035;-96
2023/02/26 06:16:55;;;;;;;13.68;4.80;;;;;;;-0.74;100.00;101436.72;4969221;28;20078;-96
2023/02/26 06:19:45;;;;;;;11.35;4.25;;;;;;;-0.88;100.00;101404.53;4970560;28;20047;-96
2023/02/26 06:26:09;;;;;;;;;;;;;;;;;;;;;
2023/02/26 06:29:27;;;;;;;;;;;;;;;;;;;;;
2023/02/26 06:32:46;;;;;;;10.23;4.70;;;;;;;-0.98;100.00;101422.22;4913358;29;20052;-96
2023/02/26 06:38:18;;;;;;;14.70;5.30;;;;;;;-1.00;100.00;101427.28;5467446;23;20046;-96
2023/02/26 06:40:52;;;;;;;20.52;5.70;;;;;;;-1.04;100.00;101432.31;4975626;28;20039;-96
2023/02/26 06:46:48;;;;;;;21.17;5.82;;;;;;;-0.77;100.00;101450.22;4957537;29;20055;-96
2023/02/26 06:49:16;;;;;;;26.75;6.63;;;;;;;-0.88;100.00;101454.38;4955713;29;20485;-96
2023/02/26 06:52:12;;;;;;;17.80;6.63;;;;;;;-0.43;100.00;101496.88;4963994;29;20035;-96
2023/02/26 06:54:41;;;;;;;14.45;5.85;;;;;;;-0.41;100.00;101506.16;4954941;29;20035;-96
2023/02/26 06:57:41;;;;;;;17.38;6.80;;;;;;;-0.74;100.00;101452.75;4960189;29;20032;-96
2023/02/26 07:00:10;;;;;;;12.70;6.30;;;;;;;-0.38;100.00;101507.03;4958208;29;20027;-96
2023/02/26 07:05:44;;;;;;;20.65;5.72;;;;;;;-0.43;100.00;101494.34;4964654;29;20035;-96
2023/02/26 07:08:12;;;;;;;18.63;4.88;;;;;;;-0.66;100.00;101470.53;4960626;29;20501;-96
2023/02/26 07:10:42;;;;;;;16.70;5.38;;;;;;;-0.51;100.00;101474.88;4961558;28;20078;-96
2023/02/26 07:13:15;;;;;;;20.10;5.55;;;;;;;-0.22;100.00;101502.88;4958227;29;20486;-96
2023/02/26 07:16:06;;;;;;;14.98;4.95;;;;;;;-0.27;100.00;101484.25;4947160;29;20032;-96
2023/02/26 07:18:33;;;;;;;13.77;4.07;;;;;;;-0.02;100.00;101501.28;4950504;29;20080;-96
2023/02/26 07:21:02;;;;;;;14.98;4.60;;;;;;;0.17;100.00;101531.78;4949891;28;20127;-96
2023/02/26 07:23:33;;;;;;;15.43;4.88;;;;;;;0.19;100.00;101514.84;4954927;29;20055;-96
2023/02/26 07:26:12;;;;;;;18.48;5.78;;;;;;;0.17;100.00;101516.53;4958440;29;20045;-96
2023/02/26 07:28:38;;;;;;;20.58;5.72;;;;;;;0.27;100.00;101508.13;4951740;29;20027;-95
2023/02/26 07:31:04;;;;;;;11.15;3.70;;;;;;;0.25;100.00;101527.59;4960491;29;20031;-96
2023/02/26 07:33:37;;;;;;;15.02;3.72;;;;;;;0.37;100.00;101520.00;4952130;29;20510;-96
2023/02/26 07:36:15;;;;;;;15.90;4.40;;;;;;;0.58;100.00;101523.41;4953673;29;20039;-96
2023/02/26 07:38:44;;;;;;;11.68;3.78;;;;;;;0.68;100.00;101570.84;4944899;29;20043;-96
2023/02/26 07:41:13;;;;;;;12.73;3.55;;;;;;;0.35;100.00;101526.75;4955398;29;20485;-95
2023/02/26 07:43:41;;;;;;;14.18;3.95;;;;;;;0.42;100.00;101528.47;4954576;29;20036;-96
2023/02/26 07:46:07;;;;;;;13.18;3.50;;;;;;;0.49;100.00;101528.47;4944943;29;20091;-96
2023/02/26 07:48:40;;;;;;;8.75;3.40;;;;;;;0.60;100.00;101521.72;4954801;29;20055;-96
2023/02/26 07:51:06;;;;;;;9.50;3.53;;;;;;;0.84;100.00;101520.88;4954181;29;20034;-96
2023/02/26 07:53:56;;;;;;;9.82;3.50;;;;;;;1.16;100.00;101518.31;4960824;29;20105;-96
2023/02/26 07:56:25;;;;;;;14.85;3.92;;;;;;;1.60;100.00;101554.69;5001841;23;20058;-96
2023/02/26 07:58:53;;;;;;;14.70;4.32;;;;;;;1.44;100.00;101518.25;4971677;28;20037;-96
2023/02/26 08:01:21;;;;;;;13.38;3.03;;;;;;;1.60;100.00;101530.09;4974312;28;20032;-96
2023/02/26 08:03:47;;;;;;;14.23;3.53;;;;;;;1.40;100.00;101539.50;4974405;28;20072;-96
2023/02/26 08:06:13;;;;;;;13.60;3.55;;;;;;;1.81;100.00;101564.81;4947637;28;20039;-96
2023/02/26 08:56:48;;;;;;;13.85;2.92;;;;;;;4.78;79.08;101613.25;4870920;29;20044;-96
2023/02/26 11:19:34;;;;;;;6.03;1.30;;;;;;;14.55;35.18;101718.66;5032094;23;20065;-96
2023/02/26 11:22:11;;;;;;;7.20;1.20;;;;;;;12.14;39.91;101732.88;4972728;28;20508;-96
2023/02/26 11:27:50;;;;;;;5.82;1.20;;;;;;;10.13;46.04;101735.47;4947946;29;20330;-96
2023/02/26 11:30:17;;;;;;;5.50;1.48;;;;;;;9.96;46.89;101781.63;4940219;29;20032;-96
2023/02/26 11:32:45;;;;;;;7.57;1.85;;;;;;;8.54;49.94;101767.88;4938349;29;20122;-96
2023/02/26 11:35:19;;;;;;;6.38;1.42;;;;;;;7.52;52.15;101750.75;5514033;23;20347;-96
2023/02/26 11:37:58;;;;;;;5.40;1.38;;;;;;;7.71;53.28;101788.00;4966662;28;20078;-96
2023/02/26 11:40:38;;;;;;;5.85;1.27;;;;;;;8.20;53.19;101747.34;4972152;28;20114;-96
2023/02/26 11:46:00;;;;;;;12.82;1.73;;;;;;;8.89;51.16;101765.19;4967722;23;20306;-96
2023/02/26 11:48:50;;;;;;;9.90;1.73;;;;;;;8.69;50.57;101740.88;4963026;28;20030;-96
2023/02/26 11:56:40;;;;;;;5.60;1.38;;;;;;;11.91;43.08;101745.94;5898101;23;20109;-96
2023/02/26 11:59:21;;;;;;;10.98;1.80;;;;;;;12.64;41.75;101747.91;4976150;28;20065;-96
2023/02/26 12:01:48;;;;;;;6.43;1.67;;;;;;;11.67;41.76;101747.78;4971236;28;20043;-96
2023/02/26 12:04:22;;;;;;;7.35;1.25;;;;;;;10.92;44.88;101746.41;4961576;29;20277;-96
2023/02/26 12:06:53;;;;;;;5.22;1.30;;;;;;;10.71;43.62;101736.00;4968720;28;20081;-96
2023/02/26 12:09:19;;;;;;;5.60;1.05;;;;;;;9.87;43.22;101767.28;4959285;29;20059;-96
2023/02/26 12:12:02;;;;;;;5.20;1.00;;;;;;;10.75;42.08;101787.50;4972128;28;20033;-96
2023/02/26 12:14:49;;;;;;;6.03;1.10;;;;;;;9.87;44.17;101798.25;4967850;28;21043;-96
2023/02/26 12:17:27;;;;;;;13.52;0.85;;;;;;;8.82;45.66;101785.13;4972456;28;20085;-96
2023/02/26 12:20:31;;;;;;;7.25;1.35;;;;;;;8.70;47.10;101788.03;4966003;28;20166;-96
2023/02/26 12:23:17;;;;;;;5.18;1.13;;;;;;;7.86;48.11;101762.81;4973039;28;20028;-96
2023/02/26 12:26:31;;;;;;;4.85;0.95;;;;;;;11.76;42.92;101787.03;4978272;28;20029;-95
2023/02/26 12:29:15;;;;;;;5.88;0.82;;;;;;;12.91;38.05;101780.41;4940537;29;20867;-96
2023/02/26 12:31:54;;;;;;;4.20;1.08;;;;;;;14.54;36.42;101732.59;4929461;29;20032;-96
2023/02/26 12:34:41;;;;;;;5.15;1.08;;;;;;;12.96;39.05;101788.81;4971184;28;20137;-96
2023/02/26 12:37:19;;;;;;;6.28;1.23;;;;;;;10.59;40.85;101749.34;4970150;28;20043;-95
2023/02/26 12:39:48;;;;;;;4.80;0.90;;;;;;;9.60;43.69;101785.34;4970925;28;20034;-96
2023/02/26 12:42:14;;;;;;;6.68;1.10;;;;;;;9.67;44.68;101791.16;4961737;28;20167;-96
2023/02/26 12:44:58;;;;;;;2.70;0.90;;;;;;;11.63;41.96;101777.25;4968908;28;20045;-96
2023/02/26 12:47:43;;;;;;;8.52;1.33;;;;;;;13.74;38.26;101771.34;4967859;28;20390;-96
2023/02/26 12:50:29;;;;;;;5.32;0.85;;;;;;;14.47;35.88;101774.53;4976984;28;20110;-96
2023/02/26 12:52:59;;;;;;;5.50;1.08;;;;;;;14.90;35.37;101734.13;4967965;28;20026;-96
2023/02/26 12:56:10;;;;;;;5.82;0.68;;;;;;;15.41;34.29;101773.75;4982094;28;20095;-96
2023/02/26 12:59:36;;;;;;;9.77;1.10;;;;;;;16.74;33.55;101743.31;4980712;28;20035;-96
2023/02/26 13:02:37;;;;;;;6.95;0.90;;;;;;;15.54;34.54;101770.47;4917887;29;20094;-96
2023/02/26 13:05:14;;;;;;;7.45;1.13;;;;;;;14.16;34.28;101775.28;4930666;29;20035;-96
2023/02/26 13:07:41;;;;;;;5.93;0.80;;;;;;;14.45;35.87;101769.41;4957353;28;20035;-96
2023/02/26 13:10:31;;;;;;;2.97;0.70;;;;;;;14.65;35.19;101744.16;4960964;28;20023;-96
2023/02/26 13:13:04;;;;;;;4.03;0.57;;;;;;;15.86;33.68;101770.41;4957879;28;20482;-96
2023/02/26 13:15:46;;;;;;;4.95;1.20;;;;;;;13.03;34.81;101743.56;4959637;28;20035;-96
2023/02/26 13:18:40;;;;;;;4.05;0.77;;;;;;;11.60;37.46;101756.69;4971640;28;20027;-96
2023/02/26 13:21:35;;;;;;;1.58;0.50;;;;;;;10.19;39.40;101773.97;4965300;28;20019;-96
2023/02/26 13:24:23;;;;;;;5.57;0.88;;;;;;;10.01;41.10;101801.22;4978914;28;20104;-96
2023/02/26 13:26:51;;;;;;;5.80;0.88;;;;;;;11.43;39.59;101749.59;4977152;28;20035;-96
2023/02/26 13:29:28;;;;;;;4.50;0.98;;;;;;;10.68;38.44;101772.25;4976547;28;20099;-96
2023/02/26 13:32:01;;;;;;;3.25;0.60;;;;;;;10.62;37.63;101766.47;4954722;29;20042;-96
2023/02/26 13:34:57;;;;;;;3.13;0.80;;;;;;;10.67;39.28;101755.06;4968399;28;20389;-96
2023/02/26 13:37:36;;;;;;;3.72;0.60;;;;;;;10.95;38.50;101784.19;4972046;28;20018;-96
2023/02/26 13:40:20;;;;;;;4.72;1.08;;;;;;;11.02;40.23;101771.00;4961756;28;20038;-96
2023/02/26 13:43:04;;;;;;;5.28;0.90;;;;;;;10.62;42.35;101790.53;4966220;28;20027;-96
2023/02/26 13:45:55;;;;;;;6.68;1.08;;;;;;;10.26;42.08;101790.91;4972560;28;20090;-96
2023/02/26 13:48:50;;;;;;;2.17;0.43;;;;;;;9.79;42.19;101789.91;4966779;28;20027;-96
2023/02/26 13:51:45;;;;;;;2.75;0.52;;;;;;;9.19;43.40;101784.03;4974219;28;20031;-96
2023/02/26 13:54:13;;;;;;;3.97;1.00;;;;;;;8.42;45.12;101785.41;4976013;28;20089;-96
2023/02/26 13:56:38;;;;;;;9.93;0.95;;;;;;;8.59;45.35;101782.38;4969333;28;20031;-96
2023/02/26 13:59:13;;;;;;;7.25;0.80;;;;;;;8.88;44.27;101792.69;4977144;28;20473;-96
2023/02/26 14:01:53;;;;;;;4.05;0.65;;;;;;;8.88;43.95;101761.78;4967255;28;20030;-95
2023/02/26 14:04:18;;;;;;;6.63;1.20;;;;;;;8.85;43.89;101794.50;4972875;28;20020;-95
2023/02/26 14:06:45;;;;;;;4.20;0.88;;;;;;;8.85;43.51;101785.06;4973789;28;20031;-96
2023/02/26 14:09:20;;;;;;;4.45;0.95;;;;;;;8.20;44.16;101800.53;4964461;28;20034;-96
2023/02/26 14:12:12;;;;;;;3.63;0.65;;;;;;;8.08;44.45;101769.09;4975177;28;20031;-96
2023/02/26 14:15:05;;;;;;;5.97;0.80;;;;;;;8.01;44.23;101753.84;4962402;28;20041;-94
2023/02/26 14:17:33;;;;;;;5.65;1.00;;;;;;;8.07;44.55;101800.84;4948664;28;20563;-96
2023/02/26 14:20:17;;;;;;;3.22;0.73;;;;;;;8.06;44.06;101801.69;4962865;28;20066;-95
2023/02/26 14:22:47;;;;;;;4.28;1.15;;;;;;;8.38;44.14;101758.03;4964922;28;20027;-96
2023/02/26 14:25:24;;;;;;;5.32;1.00;;;;;;;8.58;44.05;101760.91;4957828;28;20023;-94
2023/02/26 14:27:50;;;;;;;5.55;0.70;;;;;;;8.51;44.12;101764.53;4968001;28;20031;-96
2023/02/26 14:30:29;;;;;;;4.75;0.82;;;;;;;8.20;43.39;101754.22;4962880;28;20169;-96
2023/02/26 14:32:57;;;;;;;9.40;0.80;;;;;;;8.25;44.00;101807.22;4972751;28;20385;-96
2023/02/26 14:35:38;;;;;;;7.65;1.08;;;;;;;8.08;44.27;101787.09;4975507;28;20392;-95
2023/02/26 14:38:19;;;;;;;5.70;1.00;;;;;;;7.56;44.69;101793.50;4973449;28;20028;-96
2023/02/26 14:41:24;;;;;;;6.57;0.90;;;;;;;7.14;44.65;101764.47;4957283;28;20031;-96
2023/02/26 14:44:13;;;;;;;4.97;0.80;;;;;;;7.23;45.74;101756.56;4970951;28;20281;-96
2023/02/26 14:46:39;;;;;;;3.63;0.55;;;;;;;7.41;45.23;101753.59;4968365;28;21734;-95
2023/02/26 14:49:13;;;;;;;3.88;0.80;;;;;;;7.77;45.00;101748.44;4960040;28;20027;-96
2023/02/26 14:52:01;;;;;;;1.98;0.65;;;;;;;7.90;44.03;101761.81;4959647;28;20043;-95
2023/02/26 14:54:33;;;;;;;3.10;0.70;;;;;;;8.27;43.29;101781.47;4991269;28;20046;-96
2023/02/26 14:57:30;;;;;;;4.72;0.57;;;;;;;8.35;43.34;101743.53;4970178;28;20035;-96
2023/02/26 15:00:22;;;;;;;3.40;0.90;;;;;;;8.40;43.66;101772.56;4948959;28;20090;-95
2023/02/26 15:03:22;;;;;;;4.43;1.17;;;;;;;8.01;43.73;101800.97;4976240;28;20026;-95
2023/02/26 15:06:09;;;;;;;7.80;0.77;;;;;;;8.11;43.34;101802.44;4976402;28;20037;-95
2023/02/26 15:09:04;;;;;;;1.80;0.60;;;;;;;7.98;43.72;101777.91;4978088;28;20054;-96
2023/02/26 15:11:58;;;;;;;3.90;0.77;;;;;;;8.33;44.31;101796.72;4974450;28;20054;-96
2023/02/26 15:14:49;;;;;;;3.20;1.00;;;;;;;8.04;43.85;101759.75;4980622;28;20106;-96
2023/02/26 16:16:08;;;;;;;5.97;0.60;;;;;;;6.40;46.70;101830.91;4919395;29;20052;-96
2023/02/26 16:19:11;;;;;;;;;;;;;;;;;;;;;
2023/02/26 16:21:41;;;;;;;4.97;1.02;;;;;;;5.90;47.72;101789.03;4913550;29;20051;-96
2023/02/26 16:25:10;;;;;;;3.80;1.83;;;;;;;5.73;48.89;101798.69;4912938;29;20114;-96
2023/02/26 16:29:55;;;;;;;6.25;0.95;;;;;;;5.67;49.37;101821.84;5037738;23;20047;-96
2023/02/26 16:32:21;;;;;;;3.25;0.90;;;;;;;5.83;48.71;101819.88;4929124;29;20061;-96
2023/02/26 16:34:54;;;;;;;3.92;1.20;;;;;;;5.84;49.32;101850.59;4936402;28;20027;-96
2023/02/26 16:37:31;;;;;;;1.02;0.40;;;;;;;5.64;48.94;101837.25;4922578;29;20458;-96
2023/02/26 16:39:58;;;;;;;1.35;0.50;;;;;;;5.60;48.35;101804.88;4931763;29;20502;-96
2023/02/26 16:42:48;;;;;;;2.60;0.50;;;;;;;5.41;48.61;101812.78;4922840;29;20512;-96
2023/02/26 16:45:36;;;;;;;3.35;0.90;;;;;;;5.49;49.28;101844.28;4928671;29;20063;-96
2023/02/26 16:48:16;;;;;;;7.00;0.80;;;;;;;5.23;50.70;101800.25;4920759;29;20028;-95
2023/02/26 16:51:29;;;;;;;2.90;0.88;;;;;;;4.98;49.58;101787.78;4931928;29;20024;-96
2023/02/26 16:54:07;;;;;;;3.60;0.63;;;;;;;4.94;50.81;101798.91;4927091;29;20055;-96
2023/02/26 16:56:48;;;;;;;5.82;0.90;;;;;;;4.89;51.11;101811.75;4920461;29;20028;-96
2023/02/26 16:59:42;;;;;;;2.73;0.83;;;;;;;4.87;51.24;101828.00;4937600;29;20280;-96
2023/02/26 17:02:25;;;;;;;2.67;0.52;;;;;;;4.56;51.96;101810.44;4927451;29;20310;-96
2023/02/26 17:05:48;;;;;;;;;;;;;;;;;;;;;
2023/02/26 17:10:59;;;;;;;11.48;1.08;;;;;;;4.51;52.60;101847.97;5696191;23;20033;-96
2023/02/26 17:14:39;;;;;;;5.22;0.90;;;;;;;3.95;53.72;101816.97;4959445;28;20023;-96
2023/02/26 17:16:55;;;;;;;2.25;0.68;;;;;;;4.25;51.63;101838.00;4952120;28;20025;-96
2023/02/26 17:22:10;;;;;;;2.08;0.80;;;;;;;3.79;54.39;101821.31;5003618;23;20051;-96
2023/02/26 17:24:44;;;;;;;4.72;1.00;;;;;;;3.52;56.93;101827.47;4967113;28;20041;-96
2023/02/26 17:27:38;;;;;;;3.95;0.60;;;;;;;3.59;56.98;101858.91;4966384;28;20027;-95
2023/02/26 17:30:33;;;;;;;0.73;0.32;;;;;;;3.42;52.51;101815.63;4960649;28;20062;-96
2023/02/26 17:36:56;;;;;;;1.85;0.50;;;;;;;3.33;54.71;101859.88;4981349;28;20057;-96
2023/02/26 17:39:21;;;;;;;3.80;1.58;;;;;;;2.83;55.58;101815.03;4970974;28;20481;-96
2023/02/26 17:42:21;;;;;;;4.72;0.82;;;;;;;2.98;56.46;101873.63;4979111;28;20031;-95
2023/02/26 17:44:51;;;;;;;2.45;0.63;;;;;;;2.45;60.01;101841.44;4965653;28;20057;-95
2023/02/26 17:47:22;;;;;;;2.15;0.55;;;;;;;2.52;58.63;101855.88;4975480;28;20097;-96
2023/02/26 17:52:51;;;;;;;4.57;0.88;;;;;;;1.86;62.69;101832.13;5038331;23;20094;-96
2023/02/26 17:55:25;;;;;;;4.43;1.30;;;;;;;1.89;63.22;101867.75;4954252;29;20027;-96
2023/02/26 18:01:16;;;;;;;1.48;0.70;;;;;;;1.52;63.59;101867.69;4942850;28;20063;-96
2023/02/26 18:03:45;;;;;;;3.75;1.80;;;;;;;1.30;63.02;101853.19;4953969;28;20023;-96
2023/02/26 18:06:16;;;;;;;3.20;1.52;;;;;;;1.14;63.87;101850.56;4939769;29;20063;-95
2023/02/26 18:08:43;;;;;;;3.88;1.70;;;;;;;1.04;66.42;101872.56;4938733;29;20078;-95
2023/02/26 18:11:12;;;;;;;4.75;1.63;;;;;;;1.05;66.38;101881.06;4973962;28;20097;-96
2023/02/26 18:17:05;;;;;;;7.28;1.25;;;;;;;0.81;66.88;101882.63;5620112;23;20066;-96
2023/02/26 18:19:32;;;;;;;4.35;0.85;;;;;;;0.69;67.34;101882.53;4937020;29;20043;-94
2023/02/26 18:21:57;;;;;;;3.53;1.00;;;;;;;0.63;67.04;101890.09;4934163;29;20031;-95
2023/02/26 18:24:23;;;;;;;3.95;0.93;;;;;;;0.55;67.05;101877.34;4937369;29;20115;-95
2023/02/26 18:26:50;;;;;;;4.85;0.77;;;;;;;0.54;67.74;101892.59;4937563;29;20035;-96
2023/02/26 18:29:15;;;;;;;1.60;0.70;;;;;;;0.53;68.28;101901.03;4931563;29;20027;-96
2023/02/26 18:31:41;;;;;;;4.82;0.82;;;;;;;0.43;68.76;101910.28;4937939;29;20115;-96
2023/02/26 18:34:36;;;;;;;2.60;0.93;;;;;;;0.29;67.72;101892.38;4935970;29;20062;-96
2023/02/26 18:47:17;;;;;;;7.53;1.33;;;;;;;0.05;69.68;101892.16;4957676;29;20047;-96
2023/02/26 18:49:46;;;;;;;3.97;1.15;;;;;;;0.01;69.80;101890.47;4949469;28;20027;-96
2023/02/26 18:52:12;;;;;;;3.25;1.48;;;;;;;-0.10;70.66;101893.75;4958785;28;20035;-96
2023/02/26 18:54:41;;;;;;;7.00;1.67;;;;;;;-0.10;70.98;101903.91;5086475;23;20083;-96
2023/02/26 18:57:08;;;;;;;3.92;1.20;;;;;;;-0.05;71.15;101909.88;4965821;28;20027;-96
2023/02/26 18:59:37;;;;;;;4.15;1.27;;;;;;;-0.09;71.88;101938.59;4994538;23;20142;-96
2023/02/26 19:02:05;;;;;;;4.25;1.40;;;;;;;-0.10;72.99;101936.88;4959766;28;20027;-95
2023/02/26 19:04:31;;;;;;;5.20;1.23;;;;;;;-0.11;73.07;101952.94;4972994;28;20094;-96
2023/02/26 19:06:57;;;;;;;3.15;1.20;;;;;;;-0.18;72.90;101955.38;4957630;28;20027;-95
2023/02/26 19:09:22;;;;;;;3.55;1.45;;;;;;;-0.34;72.65;101921.38;4969774;28;20370;-96
2023/02/26 19:11:49;;;;;;;4.75;1.58;;;;;;;-0.25;73.09;101945.16;4975002;28;20134;-96
2023/02/26 19:14:15;;;;;;;5.82;1.30;;;;;;;-0.20;73.22;101951.97;4967477;28;20110;-96
2023/02/26 19:16:42;;;;;;;3.13;1.15;;;;;;;-0.42;73.63;101936.50;4963917;28;20474;-96
2023/02/26 19:19:09;;;;;;;2.42;1.38;;;;;;;-0.49;75.41;101934.72;4959152;28;20542;-95
2023/02/26 19:21:38;;;;;;;7.28;1.70;;;;;;;-0.38;74.86;101938.25;4981795;28;20482;-95
2023/02/26 19:24:06;;;;;;;2.03;1.35;;;;;;;-0.36;75.08;101948.44;4955391;29;20031;-96
2023/02/26 19:26:33;;;;;;;7.57;1.42;;;;;;;-0.30;75.17;101946.78;4955342;28;20034;-96
2023/02/26 19:28:59;;;;;;;4.30;1.58;;;;;;;-0.22;74.71;101946.88;4960272;28;20106;-95
2023/02/26 19:31:25;;;;;;;3.28;1.50;;;;;;;-0.41;75.77;101920.47;4972378;28;20027;-96
2023/02/26 19:33:51;;;;;;;6.90;2.20;;;;;;;-0.17;75.18;101944.41;4990618;28;20037;-95
2023/02/26 19:36:20;;;;;;;2.33;1.40;;;;;;;-0.10;74.22;101908.97;4972683;28;20023;-95
2023/02/26 19:38:49;;;;;;;8.50;2.03;;;;;;;-0.02;72.53;101912.44;4990962;28;20027;-96
2023/02/26 19:41:20;;;;;;;4.38;1.58;;;;;;;0.37;70.66;101930.56;4973952;28;20031;-95